sensor_id;sensor_type;location;lat;lon;timestamp;P1;durP1;ratioP1;P2;durP2;ratioP2
59408;SDS011;45213;32.654;-115.458;2023-03-01T00:01:35;3.65;;;0.82;;
59408;SDS011;45213;32.654;-115.458;2023-03-01T00:04:02;2.95;;;0.80;;
59408;SDS011;45213;32.654;-115.458;2023-03-01T00:06:29;6.97;;;1.80;;
59408;SDS011;45213;32.654;-115.458;2023-03-01T00:08:55;1.58;;;0.40;;
59408;SDS011;45213;32.654;-115.458;2023-03-01T00:11:23;1.10;;;0.43;;
59408;SDS011;45213;32.654;-115.458;2023-03-01T00:13:56;4.45;;;0.80;;
59408;SDS011;45213;32.654;-115.458;2023-03-01T00:16:26;2.22;;;0.75;;
59408;SDS011;45213;32.654;-115.458;2023-03-01T00:18:55;3.15;;;1.05;;
59408;SDS011;45213;32.654;-115.458;2023-03-01T00:21:23;1.90;;;0.73;;
59408;SDS011;45213;32.654;-115.458;2023-03-01T00:23:50;2.88;;;1.15;;
59408;SDS011;45213;32.654;-115.458;2023-03-01T00:26:18;6.65;;;0.98;;
59408;SDS011;45213;32.654;-115.458;2023-03-01T00:28:45;1.80;;;0.80;;
59408;SDS011;45213;32.654;-115.458;2023-03-01T00:31:14;2.67;;;0.65;;
59408;SDS011;45213;32.654;-115.458;2023-03-01T00:33:43;1.73;;;0.50;;
59408;SDS011;45213;32.654;-115.458;2023-03-01T00:36:11;0.98;;;0.63;;
59408;SDS011;45213;32.654;-115.458;2023-03-01T00:38:40;5.28;;;0.60;;
59408;SDS011;45213;32.654;-115.458;2023-03-01T00:41:11;2.03;;;0.50;;
59408;SDS011;45213;32.654;-115.458;2023-03-01T00:43:40;7.07;;;1.17;;
59408;SDS011;45213;32.654;-115.458;2023-03-01T00:46:08;3.85;;;0.93;;
59408;SDS011;45213;32.654;-115.458;2023-03-01T00:48:36;2.95;;;1.10;;
59408;SDS011;45213;32.654;-115.458;2023-03-01T00:53:44;2.38;;;0.73;;
59408;SDS011;45213;32.654;-115.458;2023-03-01T00:56:12;3.05;;;0.80;;
59408;SDS011;45213;32.654;-115.458;2023-03-01T00:58:40;4.15;;;0.70;;
59408;SDS011;45213;32.654;-115.458;2023-03-01T01:01:11;7.43;;;0.90;;
59408;SDS011;45213;32.654;-115.458;2023-03-01T01:03:55;5.45;;;1.33;;
59408;SDS011;45213;32.654;-115.458;2023-03-01T01:06:25;3.88;;;1.40;;
59408;SDS011;45213;32.654;-115.458;2023-03-01T01:08:54;3.55;;;1.10;;
59408;SDS011;45213;32.654;-115.458;2023-03-01T01:11:23;10.35;;;1.75;;
59408;SDS011;45213;32.654;-115.458;2023-03-01T01:13:51;5.13;;;1.52;;
59408;SDS011;45213;32.654;-115.458;2023-03-01T01:16:19;5.50;;;1.20;;
59408;SDS011;45213;32.654;-115.458;2023-03-01T01:18:48;10.05;;;1.45;;
59408;SDS011;45213;32.654;-115.458;2023-03-01T01:21:20;1.90;;;0.80;;
59408;SDS011;45213;32.654;-115.458;2023-03-01T01:23:49;3.95;;;1.50;;
59408;SDS011;45213;32.654;-115.458;2023-03-01T01:26:21;5.55;;;0.88;;
59408;SDS011;45213;32.654;-115.458;2023-03-01T01:28:52;4.50;;;1.48;;
59408;SDS011;45213;32.654;-115.458;2023-03-01T01:31:20;2.85;;;1.08;;
59408;SDS011;45213;32.654;-115.458;2023-03-01T01:33:49;2.90;;;1.25;;
59408;SDS011;45213;32.654;-115.458;2023-03-01T01:36:16;5.32;;;0.90;;
59408;SDS011;45213;32.654;-115.458;2023-03-01T01:38:44;6.13;;;1.38;;
59408;SDS011;45213;32.654;-115.458;2023-03-01T01:41:11;3.95;;;1.27;;
59408;SDS011;45213;32.654;-115.458;2023-03-01T01:43:40;3.78;;;1.40;;
59408;SDS011;45213;32.654;-115.458;2023-03-01T01:49:07;6.47;;;1.13;;
59408;SDS011;45213;32.654;-115.458;2023-03-01T01:52:16;4.65;;;1.30;;
59408;SDS011;45213;32.654;-115.458;2023-03-01T01:55:05;5.38;;;1.45;;
59408;SDS011;45213;32.654;-115.458;2023-03-01T01:57:42;8.88;;;1.40;;
59408;SDS011;45213;32.654;-115.458;2023-03-01T02:00:20;9.47;;;1.40;;
59408;SDS011;45213;32.654;-115.458;2023-03-01T02:02:50;9.80;;;2.00;;
59408;SDS011;45213;32.654;-115.458;2023-03-01T02:05:26;7.38;;;1.40;;
59408;SDS011;45213;32.654;-115.458;2023-03-01T02:08:04;6.55;;;1.85;;
59408;SDS011;45213;32.654;-115.458;2023-03-01T02:10:33;4.65;;;2.13;;
59408;SDS011;45213;32.654;-115.458;2023-03-01T02:13:01;5.43;;;1.45;;
59408;SDS011;45213;32.654;-115.458;2023-03-01T02:15:36;3.67;;;1.40;;
59408;SDS011;45213;32.654;-115.458;2023-03-01T02:18:05;4.32;;;1.10;;
59408;SDS011;45213;32.654;-115.458;2023-03-01T02:23:24;3.50;;;0.90;;
59408;SDS011;45213;32.654;-115.458;2023-03-01T02:28:38;6.63;;;0.95;;
59408;SDS011;45213;32.654;-115.458;2023-03-01T02:31:09;3.53;;;0.95;;
59408;SDS011;45213;32.654;-115.458;2023-03-01T02:33:58;3.25;;;0.95;;
59408;SDS011;45213;32.654;-115.458;2023-03-01T02:36:31;4.28;;;1.23;;
59408;SDS011;45213;32.654;-115.458;2023-03-01T02:39:03;4.07;;;1.73;;
59408;SDS011;45213;32.654;-115.458;2023-03-01T02:41:34;4.47;;;1.20;;
59408;SDS011;45213;32.654;-115.458;2023-03-01T02:44:03;4.05;;;1.17;;
59408;SDS011;45213;32.654;-115.458;2023-03-01T02:46:30;3.00;;;1.10;;
59408;SDS011;45213;32.654;-115.458;2023-03-01T02:48:57;6.30;;;1.05;;
59408;SDS011;45213;32.654;-115.458;2023-03-01T02:57:00;4.30;;;1.23;;
59408;SDS011;45213;32.654;-115.458;2023-03-01T02:59:30;5.35;;;2.13;;
59408;SDS011;45213;32.654;-115.458;2023-03-01T03:02:07;5.93;;;1.50;;
59408;SDS011;45213;32.654;-115.458;2023-03-01T03:05:06;7.03;;;1.80;;
59408;SDS011;45213;32.654;-115.458;2023-03-01T03:07:35;3.25;;;1.30;;
59408;SDS011;45213;32.654;-115.458;2023-03-01T03:10:04;4.95;;;1.70;;
59408;SDS011;45213;32.654;-115.458;2023-03-01T03:12:34;5.45;;;1.35;;
59408;SDS011;45213;32.654;-115.458;2023-03-01T03:15:00;3.05;;;1.52;;
59408;SDS011;45213;32.654;-115.458;2023-03-01T03:17:27;5.10;;;1.50;;
59408;SDS011;45213;32.654;-115.458;2023-03-01T03:19:53;4.00;;;1.45;;
59408;SDS011;45213;32.654;-115.458;2023-03-01T03:22:20;3.15;;;1.00;;
59408;SDS011;45213;32.654;-115.458;2023-03-01T03:24:47;8.57;;;1.98;;
59408;SDS011;45213;32.654;-115.458;2023-03-01T03:27:13;6.53;;;1.77;;
59408;SDS011;45213;32.654;-115.458;2023-03-01T03:29:40;4.35;;;1.17;;
59408;SDS011;45213;32.654;-115.458;2023-03-01T03:32:06;2.85;;;1.30;;
59408;SDS011;45213;32.654;-115.458;2023-03-01T03:34:33;3.63;;;1.30;;
59408;SDS011;45213;32.654;-115.458;2023-03-01T03:37:00;3.47;;;1.55;;
59408;SDS011;45213;32.654;-115.458;2023-03-01T03:39:28;1.95;;;1.23;;
59408;SDS011;45213;32.654;-115.458;2023-03-01T03:42:00;1.90;;;0.60;;
59408;SDS011;45213;32.654;-115.458;2023-03-01T03:44:27;1.55;;;0.60;;
59408;SDS011;45213;32.654;-115.458;2023-03-01T03:46:54;4.47;;;0.70;;
59408;SDS011;45213;32.654;-115.458;2023-03-01T03:49:20;3.22;;;0.68;;
59408;SDS011;45213;32.654;-115.458;2023-03-01T03:51:47;3.22;;;0.80;;
59408;SDS011;45213;32.654;-115.458;2023-03-01T03:54:14;5.50;;;0.88;;
59408;SDS011;45213;32.654;-115.458;2023-03-01T03:56:40;2.90;;;1.00;;
59408;SDS011;45213;32.654;-115.458;2023-03-01T03:59:07;1.92;;;1.08;;
59408;SDS011;45213;32.654;-115.458;2023-03-01T04:01:35;3.58;;;1.10;;
59408;SDS011;45213;32.654;-115.458;2023-03-01T04:04:01;5.10;;;1.25;;
59408;SDS011;45213;32.654;-115.458;2023-03-01T04:06:29;5.93;;;1.63;;
59408;SDS011;45213;32.654;-115.458;2023-03-01T04:08:56;8.55;;;1.80;;
59408;SDS011;45213;32.654;-115.458;2023-03-01T04:11:25;4.03;;;1.35;;
59408;SDS011;45213;32.654;-115.458;2023-03-01T04:13:53;4.78;;;1.40;;
59408;SDS011;45213;32.654;-115.458;2023-03-01T04:16:21;2.85;;;1.52;;
59408;SDS011;45213;32.654;-115.458;2023-03-01T04:18:49;3.72;;;1.20;;
59408;SDS011;45213;32.654;-115.458;2023-03-01T04:21:15;4.55;;;1.50;;
59408;SDS011;45213;32.654;-115.458;2023-03-01T04:23:42;4.93;;;1.30;;
59408;SDS011;45213;32.654;-115.458;2023-03-01T04:26:09;4.53;;;1.50;;
59408;SDS011;45213;32.654;-115.458;2023-03-01T04:28:37;2.00;;;1.13;;
59408;SDS011;45213;32.654;-115.458;2023-03-01T04:31:17;3.97;;;1.25;;
59408;SDS011;45213;32.654;-115.458;2023-03-01T04:33:53;2.90;;;1.10;;
59408;SDS011;45213;32.654;-115.458;2023-03-01T04:36:23;5.57;;;1.30;;
59408;SDS011;45213;32.654;-115.458;2023-03-01T04:38:51;4.28;;;1.55;;
59408;SDS011;45213;32.654;-115.458;2023-03-01T04:41:19;5.40;;;1.80;;
59408;SDS011;45213;32.654;-115.458;2023-03-01T04:43:47;7.15;;;2.58;;
59408;SDS011;45213;32.654;-115.458;2023-03-01T04:46:16;3.92;;;1.30;;
59408;SDS011;45213;32.654;-115.458;2023-03-01T04:48:44;2.45;;;1.00;;
59408;SDS011;45213;32.654;-115.458;2023-03-01T04:51:12;3.50;;;0.90;;
59408;SDS011;45213;32.654;-115.458;2023-03-01T04:53:39;3.78;;;1.05;;
59408;SDS011;45213;32.654;-115.458;2023-03-01T04:56:06;3.38;;;1.20;;
59408;SDS011;45213;32.654;-115.458;2023-03-01T04:58:33;4.80;;;0.93;;
59408;SDS011;45213;32.654;-115.458;2023-03-01T05:01:00;2.88;;;1.20;;
59408;SDS011;45213;32.654;-115.458;2023-03-01T05:03:26;3.00;;;1.00;;
59408;SDS011;45213;32.654;-115.458;2023-03-01T05:05:53;2.75;;;1.17;;
59408;SDS011;45213;32.654;-115.458;2023-03-01T05:08:25;3.15;;;1.00;;
59408;SDS011;45213;32.654;-115.458;2023-03-01T05:10:52;3.00;;;0.95;;
59408;SDS011;45213;32.654;-115.458;2023-03-01T05:13:20;4.60;;;1.30;;
59408;SDS011;45213;32.654;-115.458;2023-03-01T05:15:53;3.67;;;0.80;;
59408;SDS011;45213;32.654;-115.458;2023-03-01T05:18:22;10.70;;;1.30;;
59408;SDS011;45213;32.654;-115.458;2023-03-01T05:20:52;2.92;;;0.95;;
59408;SDS011;45213;32.654;-115.458;2023-03-01T05:23:22;3.70;;;1.10;;
59408;SDS011;45213;32.654;-115.458;2023-03-01T05:25:48;3.78;;;0.95;;
59408;SDS011;45213;32.654;-115.458;2023-03-01T05:28:18;3.70;;;1.20;;
59408;SDS011;45213;32.654;-115.458;2023-03-01T05:30:46;2.13;;;0.90;;
59408;SDS011;45213;32.654;-115.458;2023-03-01T05:33:12;2.60;;;0.80;;
59408;SDS011;45213;32.654;-115.458;2023-03-01T05:35:40;4.05;;;1.10;;
59408;SDS011;45213;32.654;-115.458;2023-03-01T05:38:08;2.88;;;1.00;;
59408;SDS011;45213;32.654;-115.458;2023-03-01T05:40:39;5.40;;;0.93;;
59408;SDS011;45213;32.654;-115.458;2023-03-01T05:43:06;2.63;;;1.00;;
59408;SDS011;45213;32.654;-115.458;2023-03-01T05:45:33;3.92;;;0.93;;
59408;SDS011;45213;32.654;-115.458;2023-03-01T05:48:03;2.65;;;0.85;;
59408;SDS011;45213;32.654;-115.458;2023-03-01T05:50:37;4.13;;;0.82;;
59408;SDS011;45213;32.654;-115.458;2023-03-01T05:55:37;7.75;;;1.48;;
59408;SDS011;45213;32.654;-115.458;2023-03-01T05:58:05;4.47;;;1.10;;
59408;SDS011;45213;32.654;-115.458;2023-03-01T06:00:34;3.80;;;1.08;;
59408;SDS011;45213;32.654;-115.458;2023-03-01T06:03:00;3.17;;;1.10;;
59408;SDS011;45213;32.654;-115.458;2023-03-01T06:05:28;5.47;;;1.00;;
59408;SDS011;45213;32.654;-115.458;2023-03-01T06:07:57;4.13;;;1.23;;
59408;SDS011;45213;32.654;-115.458;2023-03-01T06:10:25;5.38;;;1.40;;
59408;SDS011;45213;32.654;-115.458;2023-03-01T06:12:53;5.35;;;2.35;;
59408;SDS011;45213;32.654;-115.458;2023-03-01T06:15:20;4.35;;;2.10;;
59408;SDS011;45213;32.654;-115.458;2023-03-01T06:17:47;5.43;;;2.00;;
59408;SDS011;45213;32.654;-115.458;2023-03-01T06:20:15;5.15;;;1.80;;
59408;SDS011;45213;32.654;-115.458;2023-03-01T06:22:47;5.88;;;1.25;;
59408;SDS011;45213;32.654;-115.458;2023-03-01T06:25:15;5.82;;;1.20;;
59408;SDS011;45213;32.654;-115.458;2023-03-01T06:27:45;4.03;;;1.13;;
59408;SDS011;45213;32.654;-115.458;2023-03-01T06:30:12;5.55;;;1.65;;
59408;SDS011;45213;32.654;-115.458;2023-03-01T06:32:41;8.38;;;2.05;;
59408;SDS011;45213;32.654;-115.458;2023-03-01T06:35:08;3.97;;;1.52;;
59408;SDS011;45213;32.654;-115.458;2023-03-01T06:37:36;3.67;;;1.10;;
59408;SDS011;45213;32.654;-115.458;2023-03-01T06:40:04;2.85;;;1.00;;
59408;SDS011;45213;32.654;-115.458;2023-03-01T06:42:37;2.28;;;0.80;;
59408;SDS011;45213;32.654;-115.458;2023-03-01T06:45:05;4.95;;;0.93;;
59408;SDS011;45213;32.654;-115.458;2023-03-01T06:47:33;3.03;;;0.90;;
59408;SDS011;45213;32.654;-115.458;2023-03-01T06:50:00;1.55;;;0.70;;
59408;SDS011;45213;32.654;-115.458;2023-03-01T06:52:28;1.75;;;0.60;;
59408;SDS011;45213;32.654;-115.458;2023-03-01T06:54:55;2.30;;;0.63;;
59408;SDS011;45213;32.654;-115.458;2023-03-01T06:57:22;3.00;;;0.70;;
59408;SDS011;45213;32.654;-115.458;2023-03-01T06:59:48;2.80;;;0.68;;
59408;SDS011;45213;32.654;-115.458;2023-03-01T07:02:15;1.85;;;0.50;;
59408;SDS011;45213;32.654;-115.458;2023-03-01T07:04:42;1.73;;;0.60;;
59408;SDS011;45213;32.654;-115.458;2023-03-01T07:07:08;3.15;;;0.70;;
59408;SDS011;45213;32.654;-115.458;2023-03-01T07:09:35;2.25;;;0.70;;
59408;SDS011;45213;32.654;-115.458;2023-03-01T07:12:02;2.10;;;0.80;;
59408;SDS011;45213;32.654;-115.458;2023-03-01T07:14:29;2.97;;;1.00;;
59408;SDS011;45213;32.654;-115.458;2023-03-01T07:16:55;3.60;;;1.00;;
59408;SDS011;45213;32.654;-115.458;2023-03-01T07:19:22;9.32;;;0.93;;
59408;SDS011;45213;32.654;-115.458;2023-03-01T07:21:49;1.00;;;0.80;;
59408;SDS011;45213;32.654;-115.458;2023-03-01T07:24:15;2.50;;;0.85;;
59408;SDS011;45213;32.654;-115.458;2023-03-01T07:26:42;5.60;;;0.82;;
59408;SDS011;45213;32.654;-115.458;2023-03-01T07:29:09;4.32;;;0.98;;
59408;SDS011;45213;32.654;-115.458;2023-03-01T07:31:36;4.43;;;1.13;;
59408;SDS011;45213;32.654;-115.458;2023-03-01T07:34:03;5.03;;;1.00;;
59408;SDS011;45213;32.654;-115.458;2023-03-01T07:36:30;2.38;;;1.10;;
59408;SDS011;45213;32.654;-115.458;2023-03-01T07:38:56;1.13;;;0.60;;
59408;SDS011;45213;32.654;-115.458;2023-03-01T07:41:23;2.45;;;0.77;;
59408;SDS011;45213;32.654;-115.458;2023-03-01T07:43:50;3.70;;;0.98;;
59408;SDS011;45213;32.654;-115.458;2023-03-01T07:46:17;4.18;;;1.13;;
59408;SDS011;45213;32.654;-115.458;2023-03-01T07:48:44;3.13;;;1.40;;
59408;SDS011;45213;32.654;-115.458;2023-03-01T07:51:11;2.47;;;1.20;;
59408;SDS011;45213;32.654;-115.458;2023-03-01T07:53:38;3.05;;;1.17;;
59408;SDS011;45213;32.654;-115.458;2023-03-01T07:56:06;2.80;;;1.20;;
59408;SDS011;45213;32.654;-115.458;2023-03-01T07:58:34;2.35;;;1.02;;
59408;SDS011;45213;32.654;-115.458;2023-03-01T08:01:02;2.47;;;1.23;;
59408;SDS011;45213;32.654;-115.458;2023-03-01T08:03:30;2.65;;;1.00;;
59408;SDS011;45213;32.654;-115.458;2023-03-01T08:05:59;1.85;;;1.00;;
59408;SDS011;45213;32.654;-115.458;2023-03-01T08:08:26;1.73;;;1.15;;
59408;SDS011;45213;32.654;-115.458;2023-03-01T08:10:56;2.03;;;1.00;;
59408;SDS011;45213;32.654;-115.458;2023-03-01T08:13:23;2.67;;;1.13;;
59408;SDS011;45213;32.654;-115.458;2023-03-01T08:15:50;3.00;;;1.00;;
59408;SDS011;45213;32.654;-115.458;2023-03-01T08:18:18;2.10;;;0.75;;
59408;SDS011;45213;32.654;-115.458;2023-03-01T08:20:46;4.18;;;0.98;;
59408;SDS011;45213;32.654;-115.458;2023-03-01T08:23:12;2.45;;;0.90;;
59408;SDS011;45213;32.654;-115.458;2023-03-01T08:25:39;1.67;;;0.73;;
59408;SDS011;45213;32.654;-115.458;2023-03-01T08:28:06;2.25;;;0.73;;
59408;SDS011;45213;32.654;-115.458;2023-03-01T08:30:32;3.10;;;0.90;;
59408;SDS011;45213;32.654;-115.458;2023-03-01T08:33:00;2.30;;;0.90;;
59408;SDS011;45213;32.654;-115.458;2023-03-01T08:35:26;2.13;;;0.70;;
59408;SDS011;45213;32.654;-115.458;2023-03-01T08:37:53;2.15;;;0.80;;
59408;SDS011;45213;32.654;-115.458;2023-03-01T08:40:19;3.10;;;0.68;;
59408;SDS011;45213;32.654;-115.458;2023-03-01T08:42:46;2.13;;;0.80;;
59408;SDS011;45213;32.654;-115.458;2023-03-01T08:45:13;1.48;;;0.68;;
59408;SDS011;45213;32.654;-115.458;2023-03-01T08:47:44;2.90;;;0.75;;
59408;SDS011;45213;32.654;-115.458;2023-03-01T08:50:11;2.10;;;0.82;;
59408;SDS011;45213;32.654;-115.458;2023-03-01T08:52:38;1.90;;;0.60;;
59408;SDS011;45213;32.654;-115.458;2023-03-01T08:55:04;1.45;;;0.47;;
59408;SDS011;45213;32.654;-115.458;2023-03-01T08:57:31;3.22;;;0.68;;
59408;SDS011;45213;32.654;-115.458;2023-03-01T08:59:58;2.40;;;0.73;;
59408;SDS011;45213;32.654;-115.458;2023-03-01T09:02:24;2.70;;;0.80;;
59408;SDS011;45213;32.654;-115.458;2023-03-01T09:04:51;3.20;;;0.70;;
59408;SDS011;45213;32.654;-115.458;2023-03-01T09:07:17;2.08;;;0.60;;
59408;SDS011;45213;32.654;-115.458;2023-03-01T09:09:44;2.05;;;0.65;;
59408;SDS011;45213;32.654;-115.458;2023-03-01T09:12:11;3.60;;;0.90;;
59408;SDS011;45213;32.654;-115.458;2023-03-01T09:14:37;2.13;;;0.60;;
59408;SDS011;45213;32.654;-115.458;2023-03-01T09:17:04;3.55;;;0.70;;
59408;SDS011;45213;32.654;-115.458;2023-03-01T09:19:31;3.85;;;1.00;;
59408;SDS011;45213;32.654;-115.458;2023-03-01T09:21:57;2.22;;;0.70;;
59408;SDS011;45213;32.654;-115.458;2023-03-01T09:24:24;6.35;;;3.05;;
59408;SDS011;45213;32.654;-115.458;2023-03-01T09:26:53;3.90;;;1.23;;
59408;SDS011;45213;32.654;-115.458;2023-03-01T09:29:21;2.28;;;0.95;;
59408;SDS011;45213;32.654;-115.458;2023-03-01T09:31:48;5.65;;;0.90;;
59408;SDS011;45213;32.654;-115.458;2023-03-01T09:34:14;1.45;;;0.55;;
59408;SDS011;45213;32.654;-115.458;2023-03-01T09:36:44;2.65;;;0.98;;
59408;SDS011;45213;32.654;-115.458;2023-03-01T09:39:11;1.75;;;0.60;;
59408;SDS011;45213;32.654;-115.458;2023-03-01T09:41:49;2.65;;;0.88;;
59408;SDS011;45213;32.654;-115.458;2023-03-01T09:44:29;4.15;;;0.93;;
59408;SDS011;45213;32.654;-115.458;2023-03-01T09:47:12;1.90;;;0.77;;
59408;SDS011;45213;32.654;-115.458;2023-03-01T09:49:49;5.28;;;0.75;;
59408;SDS011;45213;32.654;-115.458;2023-03-01T09:52:35;4.82;;;0.90;;
59408;SDS011;45213;32.654;-115.458;2023-03-01T09:55:04;2.58;;;0.95;;
59408;SDS011;45213;32.654;-115.458;2023-03-01T09:57:47;4.95;;;0.93;;
59408;SDS011;45213;32.654;-115.458;2023-03-01T10:11:39;2.65;;;0.93;;
59408;SDS011;45213;32.654;-115.458;2023-03-01T10:17:12;2.85;;;0.80;;
59408;SDS011;45213;32.654;-115.458;2023-03-01T10:19:48;3.60;;;0.90;;
59408;SDS011;45213;32.654;-115.458;2023-03-01T10:22:16;2.15;;;0.68;;
59408;SDS011;45213;32.654;-115.458;2023-03-01T10:24:49;3.78;;;1.00;;
59408;SDS011;45213;32.654;-115.458;2023-03-01T10:27:24;5.32;;;1.13;;
59408;SDS011;45213;32.654;-115.458;2023-03-01T10:32:45;2.00;;;0.90;;
59408;SDS011;45213;32.654;-115.458;2023-03-01T10:35:16;3.65;;;0.70;;
59408;SDS011;45213;32.654;-115.458;2023-03-01T10:38:04;2.60;;;0.60;;
59408;SDS011;45213;32.654;-115.458;2023-03-01T10:40:33;1.70;;;0.80;;
59408;SDS011;45213;32.654;-115.458;2023-03-01T10:43:02;2.20;;;0.70;;
59408;SDS011;45213;32.654;-115.458;2023-03-01T10:45:32;3.42;;;0.82;;
59408;SDS011;45213;32.654;-115.458;2023-03-01T10:48:03;3.15;;;0.70;;
59408;SDS011;45213;32.654;-115.458;2023-03-01T10:53:44;1.30;;;0.60;;
59408;SDS011;45213;32.654;-115.458;2023-03-01T10:56:17;6.63;;;1.17;;
59408;SDS011;45213;32.654;-115.458;2023-03-01T10:59:19;5.90;;;0.93;;
59408;SDS011;45213;32.654;-115.458;2023-03-01T11:05:00;2.60;;;0.70;;
59408;SDS011;45213;32.654;-115.458;2023-03-01T11:07:29;2.08;;;1.08;;
59408;SDS011;45213;32.654;-115.458;2023-03-01T11:09:55;3.17;;;1.02;;
59408;SDS011;45213;32.654;-115.458;2023-03-01T11:12:22;3.67;;;1.00;;
59408;SDS011;45213;32.654;-115.458;2023-03-01T11:14:51;4.88;;;1.23;;
59408;SDS011;45213;32.654;-115.458;2023-03-01T11:17:21;2.08;;;1.30;;
59408;SDS011;45213;32.654;-115.458;2023-03-01T11:22:46;4.53;;;1.42;;
59408;SDS011;45213;32.654;-115.458;2023-03-01T11:25:20;4.05;;;1.48;;
59408;SDS011;45213;32.654;-115.458;2023-03-01T11:27:53;6.20;;;1.60;;
59408;SDS011;45213;32.654;-115.458;2023-03-01T11:35:35;5.88;;;3.03;;
59408;SDS011;45213;32.654;-115.458;2023-03-01T11:38:17;10.25;;;4.95;;
59408;SDS011;45213;32.654;-115.458;2023-03-01T11:40:57;11.80;;;8.48;;
59408;SDS011;45213;32.654;-115.458;2023-03-01T11:51:38;15.80;;;9.07;;
59408;SDS011;45213;32.654;-115.458;2023-03-01T11:56:57;12.57;;;8.80;;
59408;SDS011;45213;32.654;-115.458;2023-03-01T11:59:36;10.98;;;8.27;;
59408;SDS011;45213;32.654;-115.458;2023-03-01T12:13:04;12.70;;;8.40;;
59408;SDS011;45213;32.654;-115.458;2023-03-01T12:18:20;11.40;;;7.00;;
59408;SDS011;45213;32.654;-115.458;2023-03-01T12:34:55;5.68;;;3.13;;
59408;SDS011;45213;32.654;-115.458;2023-03-01T12:37:29;5.25;;;3.15;;
59408;SDS011;45213;32.654;-115.458;2023-03-01T12:43:09;5.55;;;2.72;;
59408;SDS011;45213;32.654;-115.458;2023-03-01T12:51:10;3.92;;;1.60;;
59408;SDS011;45213;32.654;-115.458;2023-03-01T13:01:35;4.75;;;1.35;;
59408;SDS011;45213;32.654;-115.458;2023-03-01T13:20:49;6.65;;;2.28;;
59408;SDS011;45213;32.654;-115.458;2023-03-01T13:28:32;4.90;;;2.55;;
59408;SDS011;45213;32.654;-115.458;2023-03-01T13:31:09;6.22;;;2.17;;
59408;SDS011;45213;32.654;-115.458;2023-03-01T13:33:57;4.65;;;2.25;;
59408;SDS011;45213;32.654;-115.458;2023-03-01T13:39:02;6.53;;;2.28;;
59408;SDS011;45213;32.654;-115.458;2023-03-01T13:41:50;11.90;;;2.42;;
59408;SDS011;45213;32.654;-115.458;2023-03-01T13:47:34;3.88;;;2.30;;
59408;SDS011;45213;32.654;-115.458;2023-03-01T13:49:58;6.15;;;2.53;;
59408;SDS011;45213;32.654;-115.458;2023-03-01T13:55:18;5.28;;;2.35;;
59408;SDS011;45213;32.654;-115.458;2023-03-01T13:58:16;9.55;;;2.67;;
59408;SDS011;45213;32.654;-115.458;2023-03-01T14:00:45;5.30;;;2.20;;
59408;SDS011;45213;32.654;-115.458;2023-03-01T14:03:18;11.38;;;2.50;;
59408;SDS011;45213;32.654;-115.458;2023-03-01T14:06:05;4.97;;;2.55;;
59408;SDS011;45213;32.654;-115.458;2023-03-01T14:08:38;6.88;;;2.63;;
59408;SDS011;45213;32.654;-115.458;2023-03-01T14:16:42;6.68;;;2.65;;
59408;SDS011;45213;32.654;-115.458;2023-03-01T14:19:23;3.17;;;2.20;;
59408;SDS011;45213;32.654;-115.458;2023-03-01T14:22:27;8.75;;;2.85;;
59408;SDS011;45213;32.654;-115.458;2023-03-01T14:24:57;7.13;;;3.28;;
59408;SDS011;45213;32.654;-115.458;2023-03-01T14:27:38;8.80;;;3.70;;
59408;SDS011;45213;32.654;-115.458;2023-03-01T14:30:41;8.20;;;4.80;;
59408;SDS011;45213;32.654;-115.458;2023-03-01T14:33:18;8.85;;;5.60;;
59408;SDS011;45213;32.654;-115.458;2023-03-01T14:38:27;10.13;;;6.13;;
59408;SDS011;45213;32.654;-115.458;2023-03-01T14:41:19;11.05;;;6.05;;
59408;SDS011;45213;32.654;-115.458;2023-03-01T14:43:58;17.13;;;7.68;;
59408;SDS011;45213;32.654;-115.458;2023-03-01T14:49:03;15.77;;;7.43;;
59408;SDS011;45213;32.654;-115.458;2023-03-01T14:51:38;16.55;;;7.05;;
59408;SDS011;45213;32.654;-115.458;2023-03-01T14:56:58;18.13;;;6.85;;
59408;SDS011;45213;32.654;-115.458;2023-03-01T14:59:26;19.55;;;6.57;;
59408;SDS011;45213;32.654;-115.458;2023-03-01T15:01:55;15.88;;;7.30;;
59408;SDS011;45213;32.654;-115.458;2023-03-01T15:04:23;21.50;;;7.20;;
59408;SDS011;45213;32.654;-115.458;2023-03-01T15:06:52;16.75;;;6.38;;
59408;SDS011;45213;32.654;-115.458;2023-03-01T15:09:20;15.15;;;7.00;;
59408;SDS011;45213;32.654;-115.458;2023-03-01T15:11:48;20.13;;;8.05;;
59408;SDS011;45213;32.654;-115.458;2023-03-01T15:17:20;31.75;;;10.07;;
59408;SDS011;45213;32.654;-115.458;2023-03-01T15:20:00;70.43;;;11.90;;
59408;SDS011;45213;32.654;-115.458;2023-03-01T15:22:30;18.05;;;8.43;;
59408;SDS011;45213;32.654;-115.458;2023-03-01T15:24:57;17.33;;;7.43;;
59408;SDS011;45213;32.654;-115.458;2023-03-01T15:27:24;19.55;;;7.18;;
59408;SDS011;45213;32.654;-115.458;2023-03-01T15:29:55;14.65;;;6.28;;
59408;SDS011;45213;32.654;-115.458;2023-03-01T15:32:30;21.35;;;7.88;;
59408;SDS011;45213;32.654;-115.458;2023-03-01T15:34:59;17.85;;;7.95;;
59408;SDS011;45213;32.654;-115.458;2023-03-01T15:37:47;17.52;;;7.68;;
59408;SDS011;45213;32.654;-115.458;2023-03-01T15:40:17;18.23;;;7.32;;
59408;SDS011;45213;32.654;-115.458;2023-03-01T15:43:04;29.58;;;8.75;;
59408;SDS011;45213;32.654;-115.458;2023-03-01T15:45:32;17.73;;;8.32;;
59408;SDS011;45213;32.654;-115.458;2023-03-01T15:48:14;20.75;;;8.15;;
59408;SDS011;45213;32.654;-115.458;2023-03-01T15:50:43;19.30;;;7.68;;
59408;SDS011;45213;32.654;-115.458;2023-03-01T15:53:19;20.48;;;7.93;;
59408;SDS011;45213;32.654;-115.458;2023-03-01T15:55:46;21.20;;;7.25;;
59408;SDS011;45213;32.654;-115.458;2023-03-01T15:58:16;25.02;;;8.50;;
59408;SDS011;45213;32.654;-115.458;2023-03-01T16:00:47;20.30;;;7.53;;
59408;SDS011;45213;32.654;-115.458;2023-03-01T16:03:17;16.85;;;6.80;;
59408;SDS011;45213;32.654;-115.458;2023-03-01T16:05:47;20.95;;;7.57;;
59408;SDS011;45213;32.654;-115.458;2023-03-01T16:08:15;14.50;;;6.00;;
59408;SDS011;45213;32.654;-115.458;2023-03-01T16:10:43;18.30;;;6.82;;
59408;SDS011;45213;32.654;-115.458;2023-03-01T16:13:11;13.25;;;6.22;;
59408;SDS011;45213;32.654;-115.458;2023-03-01T16:15:39;20.08;;;6.85;;
59408;SDS011;45213;32.654;-115.458;2023-03-01T16:18:06;16.60;;;6.47;;
59408;SDS011;45213;32.654;-115.458;2023-03-01T16:20:35;16.10;;;6.15;;
59408;SDS011;45213;32.654;-115.458;2023-03-01T16:23:03;26.55;;;7.10;;
59408;SDS011;45213;32.654;-115.458;2023-03-01T16:25:33;12.98;;;6.18;;
59408;SDS011;45213;32.654;-115.458;2023-03-01T16:28:01;13.35;;;5.57;;
59408;SDS011;45213;32.654;-115.458;2023-03-01T16:30:30;20.40;;;5.88;;
59408;SDS011;45213;32.654;-115.458;2023-03-01T16:32:57;16.80;;;6.97;;
59408;SDS011;45213;32.654;-115.458;2023-03-01T16:35:24;23.02;;;8.05;;
59408;SDS011;45213;32.654;-115.458;2023-03-01T16:37:50;16.75;;;5.53;;
59408;SDS011;45213;32.654;-115.458;2023-03-01T16:40:23;7.60;;;3.53;;
59408;SDS011;45213;32.654;-115.458;2023-03-01T16:42:52;6.50;;;4.00;;
59408;SDS011;45213;32.654;-115.458;2023-03-01T16:45:21;12.60;;;4.05;;
59408;SDS011;45213;32.654;-115.458;2023-03-01T16:47:47;9.30;;;3.50;;
59408;SDS011;45213;32.654;-115.458;2023-03-01T16:50:14;6.10;;;3.08;;
59408;SDS011;45213;32.654;-115.458;2023-03-01T16:52:40;7.18;;;2.78;;
59408;SDS011;45213;32.654;-115.458;2023-03-01T16:55:07;9.38;;;2.50;;
59408;SDS011;45213;32.654;-115.458;2023-03-01T16:57:35;6.82;;;2.38;;